NWS Home NWS Lubbock West Texas Mesonet Three hour changes as of 0228 PM, Sun Nov 17, 2019

Latest   N   C   S   Daily Sum   3hrΔ   24hrΔ   Soil Data 
Site Map   24hr Precip   72hr Precip   Google Plot


Station Time of Last Temp Now Temp 3h ago Delta-T Dewpoint Now Dewpoint 3hr ago Delta-Td 3hr Press Change (mB)
Reese Center  02:20 PM 60 54.4 5.6 34.6 34.5 0.1 -1.8
Abernathy  02:20 PM 59.5 54.3 5.2 34.9 34.7 0.3 -2.1
Plainview  02:20 PM 58.3 53.1 5.2 35.3 36.3 -1 -2.1
Tahoka  02:20 PM 62.1 54.9 7.2 35.2 35.2 0 -1.7
Slaton  02:20 PM 61.1 54.5 6.6 35.8 35.7 0.2 -1.7
Levelland  02:20 PM 59.9 52.9 7 34.8 34.4 0.4 -1.8
Roaring Springs  02:20 PM 61.5 55.5 5.9 38 38 0 -2
Floydada  02:20 PM 59.8 54.8 5 33.7 33.8 -0.1 -1.8
Ralls  02:20 PM 60 53.7 6.4 34.1 33.9 0.2 -1.5
Brownfield  02:20 PM 60.9 53.3 7.6 34.7 34.9 -0.2 -1.8
Muleshoe  02:20 PM 57.1 50.8 6.4 36 36.7 -0.8 -2.6
Morton  02:20 PM 59.5 52.8 6.8 32.5 33.6 -1 -2.2
O'Donnell  02:20 PM 63.4 55.6 7.9 36.8 36.2 0.6 -1.7
Seagraves  02:20 PM 61.5 54.1 7.4 34.4 34.7 -0.2 -2
Amherst  02:20 PM 58.2 51.2 6.9 35.1 35.5 -0.4 -2.5
Plains  02:20 PM 59.8 52.5 7.3 35 34.6 0.4 -2.1
Lamesa  02:20 PM 61 54.8 6.2 35.8 36.3 -0.5 -1.7
Hart  02:20 PM 56.4 50.7 5.7 35.4 37.9 -2.5 -2.2
Friona  02:20 PM 56.6 50.5 6.1 34.3 35.8 -1.5 -2.5
Dimmitt  02:20 PM 55.4 49.6 5.7 34.6 35.9 -1.2 -2.2
Tulia  02:20 PM 57.4 51.3 6 34.8 34.9 -0.1 -2.3
Silverton  02:20 PM 59 54.4 4.6 33.3 34.7 -1.4 -2.2
Post  02:20 PM 63.7 58.2 5.5 33.5 33.9 -0.4 -1.6
Seminole  02:20 PM 61.3 54.7 6.6 31.5 33.1 -1.6 -1.9
Gail  02:20 PM 63.2 58 5.2 33.8 34.2 -0.4 -1.2
White River Lake  02:20 PM 62.7 56.4 6.4 36.3 35.4 0.9 -1.2
Graham  02:20 PM 61.3 55.4 6 35.4 35.5 -0.1 -1.5
Sundown  02:20 PM 61.7 54.4 7.3 33 33.2 -0.2 -2
Anton  02:20 PM 59.5 52.5 7 34.8 34.6 0.2 -2.2
Fluvanna  02:20 PM 61.9 56.1 5.8 35.7 35.5 0.2 -0.8
Spur  02:20 PM 63.7 58.6 5.1 36.2 35.6 0.6 -1.3
Northwest Lubbock  02:20 PM 60.7 54.9 5.8 33.6 33.7 -0.1 -1.8
Guthrie  02:20 PM 64.2 58.7 5.5 35.1 34.9 0.2 -1.4
Clarendon  02:20 PM 60.3 54.6 5.7 32.9 35.3 -2.4 -2.6
Paducah  02:20 PM 64.5 59.2 5.3 35 36.8 -1.8 -2
Snyder  02:20 PM 63.8 57.2 6.6 36.4 37.1 -0.7 -0.8
Memphis  02:20 PM 61.9 57.4 4.5 32.8 35.9 -3.2 -2.6
Jayton  02:20 PM 63.8 58.4 5.4 37.5 37.2 0.3 -1.2
Pampa  02:20 PM 55.9 51.4 4.5 31.1 34.1 -3 -2.6
Aspermont  02:20 PM 65.6 59.9 5.6 38.4 37.9 0.4 -1.3
Hereford  02:20 PM 55.8 49.9 5.9 33.6 35.6 -2 -2.4
Goodlett  02:20 PM 64.7 59.5 5.2 35.2 36.8 -1.6 -2.3
McLean  02:20 PM 57.8 53.2 4.6 32.9 34.4 -1.5 -2.7
Denver City  02:20 PM 60.6 53.7 6.9 30.7 32.5 -1.8 -1.9
Lake Alan Henry  02:20 PM 64.3 59.1 5.2 37 36.7 0.3 -1.6
Wolfforth  02:20 PM 60.6 53.6 6.9 35 35 -0 -1.7
Andrews  02:20 PM 62.6 56.4 6.1 31.3 32.6 -1.3 -2.5
Turkey  02:20 PM 61.1 56.7 4.3 34 35.7 -1.8 -2.4
Childress  02:20 PM 63.6 58.2 5.4 33.4 35.8 -2.5 -2.5
Tatum  02:20 PM 59.5 53.9 5.7 31.9 33.7 -1.8 -1.9
Northfield  02:20 PM 64.4 59.4 5 32.8 34 -1.2 -2.4
Dora  02:20 PM 57.2 50.9 6.2 32.9 33.8 -1 -2.4
Northwest San Angelo  02:20 PM 66 59.7 6.3 35.3 36.7 -1.3 -1.8
Saint Lawrence  02:20 PM 62.9 56.9 6 34.9 35.1 -0.3 -2
Haskell  02:20 PM 63.9 57.4 6.5 37.7 37.1 0.7 -1.4
Wall  02:20 PM 64.5 58.6 5.9 40.2 41.5 -1.3 -1.8
Seymour  02:20 PM 65 58.2 6.8 38.1 37.9 0.2 -1.6
Knox City  02:20 PM 65.8 59.8 6 39.3 38.6 0.6 -1.6
Guadalupe Mtns Park  02:20 PM 53.4 52.4 1 29.8 29.8 0.1 -2.7
Caprock Canyons   02:20 PM 59.6 54.7 4.9 33.8 35.6 -1.8 -2.3
Odell  02:20 PM 65.4 60 5.4 37.3 37.6 -0.4 -2
Coyanosa  02:20 PM 63 59.7 3.3 33.7 33.7 0 -3
Big Lake  02:20 PM 61.9 56.4 5.5 37 38.4 -1.4 -1.5
Junction  02:20 PM 68.7 58.7 9.9 46.9 51.4 -4.6 -2.2
Hobbs  02:20 PM 61.4 54.1 7.3 29.7 32.8 -3.1 -1.8
Canadian  02:20 PM 59.4 54.3 5 31 34.9 -3.9 -3.2
Palo Duro Canyon State Park Rim  02:20 PM 58.3 52.6 5.7 33.4 34.9 -1.5 -2.7
Bootleg  02:20 PM 54.9 48.5 6.3 32.4 33.8 -1.4 -2.6
Sterling City  02:20 PM 64.3 58 6.4 35.6 35.8 -0.3 -2.1
Mertzon  02:20 PM 66.2 61.7 4.4 38.4 42.1 -3.7 -1.6
Persimmon Gap  02:20 PM 71.9 64.9 7 30.2 32 -1.7 -2.2
Weinert  02:20 PM 64.2 58.6 5.6 37.1 37.5 -0.4 -1.4
Claude 12 Southwest  02:20 PM 57 50.8 6.2 33.9 34.9 -1 -2.7
Amarillo 7 South Southeast  02:20 PM 56 50.9 5.1 32.3 35 -2.8 -2.8
Umbarger  02:20 PM 56.2 49.1 7.1 34.4 35.1 -0.7 -2.8
Lomax  02:20 PM 63 57.7 5.3 34.2 35.1 -0.8 -2.4
Amarillo 9 North Northeast  02:20 PM 57.8 52.4 5.4 31.3 35 -3.7 -3.2
Aiken  02:20 PM 58.1 53.1 5.1 34.3 35.2 -0.9 -2.1
Sweetwater  02:20 PM 61.8 55.8 5.9 36.9 36.4 0.5 -1.5
Dozier  02:20 PM 61.3 56.8 4.5 33.6 36.6 -3 -2.7
Amarillo 15 North Northwest  02:20 PM 58 53.5 4.5 33.2 35.1 -1.8 -3.4
Menard  08:35 AM 23.1 24.4 -1.3 10.3 16.1 -5.7 1.5
Goodnight  02:20 PM 58.5 54.2 4.2 33.1 36.2 -3.1 -2.9
Boys Ranch   02:20 PM 59.2 53 6.3 32.8 34.4 -1.6 -3.7
Fort McKavett  02:20 PM 64.2 62.2 2 42.9 45.5 -2.7 -1.7
Fort Chadbourne  02:20 PM 64.3 59.3 5 39.2 39.3 -0 -1.7
Palo Duro Canyon State Park Floor  02:20 PM 61.7 56.8 4.8 34.8 36.2 -1.3 -3.1
Fort Lancaster  02:20 PM 66.8 60.8 6 39.7 42.8 -3.1 -2
Dell City 1N  02:20 PM 63.1 54.5 8.6 32.4 32.3 0.1 -3.4
Clyde  02:20 PM 63.1 56.6 6.5 38.2 39.6 -1.4 -1.6
Snyder SSW  02:20 PM 63.5 58 5.5 36.5 36.4 0 -1
Panhandle  02:20 PM 55.7 50.6 5 33.2 35.1 -1.9 -3
Vigo Park  02:20 PM 57.1 51.9 5.2 34.6 35.6 -1 -2.3
Welch  02:20 PM 61.8 54.5 7.3 34.9 35.5 -0.6 -1.9
Throckmorton  02:20 PM 65.2 57.3 7.9 38.3 37.5 0.8 -1.7
Sierra Blanca  02:20 PM 62.8 57.2 5.6 29.5 29.8 -0.3 -2.6
Fort Lewis CO  02:20 PM 58.2 48 10.2 17.5 13.8 3.7 -1.9
New Home  02:20 PM 60.6 54.1 6.5 35.6 35.7 -0.1 -1.6
McCamey  02:20 PM 63.2 59.3 3.9 35.6 37.1 -1.5 -2.7
Stamford  02:20 PM 63.6 56.8 6.8 39.5 38.1 1.5 -1.7
Crowell  02:20 PM 65.5 60.2 5.3 38.3 38.5 -0.2 -1.8
Stinnett  02:20 PM 56.6 50.5 6.1 31.5 34.6 -3 -3.3
Colorado City  02:20 PM 64.7 60.2 4.5 35.8 36.7 -0.9 -1.6
Happy  02:20 PM 56.8 51.6 5.1 35.2 36.5 -1.4 -2.4
Endee  02:20 PM 56 49.4 6.6 33.6 34.5 -0.9 -2.9
JA Ranch  02:20 PM 62.3 55.9 6.4 34.3 35.8 -1.5 -2.7
Adrian  02:20 PM 54.8 46.8 8 32 34.2 -2.2 -2.8
Lesley  02:20 PM 63.9 58.2 5.7 34.5 36.5 -2 -2.6
Earth  02:20 PM 57.3 51.8 5.4 35.3 35.4 -0.1 -2.5
Van Horn  02:20 PM 62.4 57.7 4.7 31.8 30.7 1.1 -2.9
Rotan  02:20 PM 63.3 57.6 5.7 37.8 36.9 0.9 -1.1
Fritch  02:20 PM 57.1 51.4 5.7 32.9 35.4 -2.5 -3.5
Estelline  02:20 PM 63.2 58.2 5.1 33.5 35.8 -2.3 -2.8
Crane  02:20 PM 64.9 58.9 6.1 35 34.6 0.4 -3.1
Hackberry  02:20 PM 65.4 60 5.4 37 37.3 -0.3 -1.9
Romero 11SSW  02:20 PM 56.7 49.2 7.5 32 34.8 -2.8 -3.3
Palo Duro Reservoir 1NW  02:20 PM 57.6 52.5 5.1 30 32.7 -2.8 -3.1
South Plains 3ENE  02:20 PM 59.7 55.1 4.6 33.9 35.2 -1.4 -2.1
Lake McClellan 2NW  02:20 PM 57 52.8 4.2 32.1 34.2 -2.1 -2.7
Segovia 7SSW  02:20 PM 66.5 59.7 6.8 47.2 50.8 -3.6 -1.9
Castolon 1NW BBNP  02:20 PM 76.7 64.6 12 33.4 48.4 -15 -2.4
Smyer  02:20 PM 60.7 54.1 6.6 35.1 35.1 0 -1.9
Doole 3WNW  02:20 PM 65.9 60.4 5.5 42.2 40.4 1.8 -2.1
Stratford  02:20 PM 58.3 51.5 6.9 27.5 31.6 -4.1 -3.2
Truscott  02:20 PM 65 60 5 37.2 37.3 -0.1 -1.8
Kent I10-I20 Split  02:20 PM 58.5 55.3 3.2 30 30 0 -3.4
Olton  02:20 PM 57.5 51.9 5.6 34.8 35.1 -0.3 -2.3

West Texas Mesonet Home   Site Map/Menu  NWS Lubbock Soil Data  Daily Summary Page  24hr Precip  72hr Precip  Google Plot